createdAt,value
2023-01-05T00:04:24.465Z,11.11
2023-01-05T00:09:18.716Z,11.44
2023-01-05T00:14:33.035Z,11.59
2023-01-05T00:19:43.135Z,11.01
2023-01-05T00:24:34.717Z,11.18
2023-01-05T00:29:26.249Z,11.23
2023-01-05T00:34:17.887Z,10.42
2023-01-05T00:39:09.506Z,11.54
2023-01-05T00:44:01.090Z,11.20
2023-01-05T00:48:52.770Z,11.17
2023-01-05T00:53:44.399Z,11.17
2023-01-05T00:58:36.135Z,11.39
2023-01-05T01:03:27.708Z,11.41
2023-01-05T01:08:20.049Z,10.54
2023-01-05T01:13:11.625Z,11.43
2023-01-05T01:18:03.199Z,11.40
2023-01-05T01:22:54.752Z,11.43
2023-01-05T01:27:46.591Z,11.46
2023-01-05T01:32:38.320Z,11.02
2023-01-05T01:37:31.144Z,11.30
2023-01-05T01:42:23.860Z,10.86
2023-01-05T01:47:24.618Z,11.40
2023-01-05T01:52:17.102Z,11.06
2023-01-05T01:57:11.641Z,11.39
2023-01-05T02:02:03.406Z,11.42
2023-01-05T02:06:56.203Z,11.18
2023-01-05T02:12:12.117Z,11.34
2023-01-05T02:17:15.844Z,11.30
2023-01-05T02:22:16.520Z,11.24
2023-01-05T02:27:24.533Z,11.27
2023-01-05T02:32:25.667Z,11.13
2023-01-05T02:37:46.740Z,10.78
2023-01-05T02:42:41.685Z,11.14
2023-01-05T02:47:40.004Z,10.92
2023-01-05T02:52:42.835Z,10.22
2023-01-05T02:57:47.593Z,9.92
2023-01-05T03:02:49.398Z,10.70
2023-01-05T03:07:43.955Z,10.94
2023-01-05T03:13:13.357Z,10.57
2023-01-05T03:18:08.492Z,10.92
2023-01-05T03:23:29.828Z,10.90
2023-01-05T03:28:44.671Z,10.32
2023-01-05T03:34:01.945Z,10.89
2023-01-05T03:38:57.612Z,10.91
2023-01-05T03:43:52.236Z,10.79
2023-01-05T03:48:45.076Z,10.94
2023-01-05T03:53:37.321Z,10.70
2023-01-05T03:58:28.997Z,10.57
2023-01-05T04:03:25.049Z,10.65
2023-01-05T04:08:20.088Z,10.71
2023-01-05T04:13:12.198Z,10.96
2023-01-05T04:18:03.813Z,11.05
2023-01-05T04:22:55.777Z,10.20
2023-01-05T04:27:48.296Z,11.05
2023-01-05T04:32:41.941Z,10.94
2023-01-05T04:37:39.450Z,10.77
2023-01-05T04:42:31.681Z,10.72
2023-01-05T04:47:23.355Z,10.95
2023-01-05T04:52:16.279Z,10.71
2023-01-05T04:57:09.513Z,10.33
2023-01-05T05:02:03.349Z,10.71
2023-01-05T05:06:57.380Z,10.88
2023-01-05T05:11:51.324Z,10.48
2023-01-05T05:16:46.707Z,10.55
2023-01-05T05:21:39.131Z,9.97
2023-01-05T05:26:30.843Z,10.56
2023-01-05T05:31:24.263Z,10.58
2023-01-05T05:36:17.843Z,10.56
2023-01-05T05:41:10.991Z,10.66
2023-01-05T05:46:02.985Z,10.68
2023-01-05T05:50:55.320Z,10.70
2023-01-05T05:55:51.010Z,10.73
2023-01-05T06:00:42.555Z,10.77
2023-01-05T06:05:34.122Z,10.45
2023-01-05T06:10:25.725Z,10.69
2023-01-05T06:15:17.460Z,10.23
2023-01-05T06:20:09.942Z,10.32
2023-01-05T06:25:01.505Z,10.69
2023-01-05T06:29:53.334Z,10.44
2023-01-05T06:34:44.904Z,10.60
2023-01-05T06:39:36.475Z,10.71
2023-01-05T06:44:28.167Z,10.73
2023-01-05T06:49:19.775Z,10.69
2023-01-05T06:54:11.432Z,10.69
2023-01-05T06:59:03.064Z,10.72
2023-01-05T07:03:54.781Z,10.72
2023-01-05T07:08:46.438Z,10.68
2023-01-05T07:13:37.995Z,9.74
2023-01-05T07:18:29.621Z,10.70
2023-01-05T07:23:21.261Z,10.73
2023-01-05T07:28:12.979Z,10.25
2023-01-05T07:33:05.235Z,10.77
2023-01-05T07:37:57.253Z,10.77
2023-01-05T07:42:53.405Z,10.69
2023-01-05T07:47:46.031Z,10.43
2023-01-05T07:52:39.073Z,10.30
2023-01-05T07:57:31.555Z,10.74
2023-01-05T08:02:23.340Z,10.70
2023-01-05T08:07:15.737Z,10.81
2023-01-05T08:12:07.565Z,10.84
2023-01-05T08:16:59.192Z,10.13
2023-01-05T08:21:50.779Z,10.18
2023-01-05T08:26:42.413Z,10.46
2023-01-05T08:31:37.483Z,11.06
2023-01-05T08:36:31.482Z,10.99
2023-01-05T08:41:28.418Z,10.46
2023-01-05T08:46:22.630Z,11.21
2023-01-05T08:51:14.473Z,11.37
2023-01-05T08:56:06.435Z,11.44
2023-01-05T09:00:58.165Z,11.16
2023-01-05T09:05:55.198Z,11.59
2023-01-05T09:10:46.816Z,11.63
2023-01-05T09:15:38.625Z,11.58
2023-01-05T09:20:33.215Z,10.86
2023-01-05T09:25:29.446Z,11.02
2023-01-05T09:30:21.133Z,12.29
2023-01-05T09:35:13.741Z,11.83
2023-01-05T09:40:05.976Z,12.53
2023-01-05T09:45:03.205Z,12.22
2023-01-05T09:49:58.050Z,12.50
2023-01-05T09:54:49.650Z,12.54
2023-01-05T09:59:45.115Z,12.34
2023-01-05T10:04:36.870Z,12.68
2023-01-05T10:09:33.246Z,12.68
2023-01-05T10:14:32.265Z,13.00
2023-01-05T10:19:23.936Z,12.83
2023-01-05T10:24:31.777Z,12.96
2023-01-05T10:29:31.274Z,12.36
2023-01-05T10:34:41.950Z,13.04
2023-01-05T10:40:01.956Z,12.52
2023-01-05T10:44:59.685Z,13.32
2023-01-05T10:49:51.651Z,13.49
2023-01-05T10:54:44.345Z,13.18
2023-01-05T10:59:54.727Z,13.31
2023-01-05T11:04:48.584Z,13.25
2023-01-05T11:09:41.598Z,13.36
2023-01-05T11:14:40.772Z,13.57
2023-01-05T11:19:37.113Z,13.81
2023-01-05T11:24:34.526Z,13.79
2023-01-05T11:29:26.151Z,13.09
2023-01-05T11:34:42.467Z,13.10
2023-01-05T11:39:47.665Z,13.62
2023-01-05T11:44:47.679Z,13.27
2023-01-05T11:49:39.481Z,13.69
2023-01-05T11:54:38.126Z,13.42
2023-01-05T11:59:30.115Z,13.61
2023-01-05T12:04:27.934Z,13.74
2023-01-05T12:09:35.292Z,13.84
2023-01-05T12:14:39.531Z,13.76
2023-01-05T12:19:49.220Z,13.95
2023-01-05T12:25:01.693Z,14.40
2023-01-05T12:35:37.228Z,14.20
2023-01-05T12:40:46.205Z,14.02
2023-01-05T12:46:08.363Z,13.57
2023-01-05T12:51:16.524Z,13.77
2023-01-05T12:56:23.525Z,13.79
2023-01-05T13:01:23.696Z,12.65
2023-01-05T13:06:20.197Z,12.63
2023-01-05T13:11:18.051Z,13.70
2023-01-05T13:16:30.326Z,13.78
2023-01-05T13:21:24.038Z,13.64
2023-01-05T13:26:18.698Z,13.50
2023-01-05T13:31:56.483Z,13.04
2023-01-05T13:37:25.888Z,13.53
2023-01-05T13:42:42.561Z,13.41
2023-01-05T13:48:13.056Z,13.22
2023-01-05T13:53:12.128Z,12.68
2023-01-05T13:58:24.706Z,12.78
2023-01-05T14:03:33.054Z,12.77
2023-01-05T14:08:32.327Z,12.78
2023-01-05T14:13:42.011Z,12.90
2023-01-05T14:18:51.052Z,12.86
2023-01-05T14:23:42.602Z,12.92
2023-01-05T14:28:34.445Z,12.87
2023-01-05T14:33:26.337Z,12.86
2023-01-05T14:38:23.176Z,12.67
2023-01-05T14:43:29.937Z,12.49
2023-01-05T14:48:30.364Z,12.69
2023-01-05T14:53:44.213Z,11.76
2023-01-05T14:58:35.784Z,12.58
2023-01-05T15:03:38.952Z,12.51
2023-01-05T15:08:53.898Z,11.85
2023-01-05T15:14:37.761Z,11.95
2023-01-05T15:19:40.739Z,11.71
2023-01-05T15:25:07.605Z,12.08
2023-01-05T15:30:02.301Z,11.90
2023-01-05T15:35:20.549Z,11.86
2023-01-05T15:40:21.406Z,11.79
2023-01-05T15:45:31.742Z,11.79
2023-01-05T15:50:27.615Z,11.71
2023-01-05T15:55:19.525Z,11.45
2023-01-05T16:00:22.855Z,11.07
2023-01-05T16:05:24.749Z,11.48
2023-01-05T16:10:19.079Z,11.38
2023-01-05T16:15:15.892Z,11.22
2023-01-05T16:20:18.679Z,10.09
2023-01-05T16:25:31.115Z,10.93
2023-01-05T16:30:31.540Z,10.72
2023-01-05T16:35:47.298Z,10.68
2023-01-05T16:40:48.072Z,10.64
2023-01-05T16:45:39.657Z,10.67
2023-01-05T16:50:37.136Z,10.68
2023-01-05T16:55:30.034Z,10.56
2023-01-05T17:00:30.882Z,10.48
2023-01-05T17:05:29.058Z,10.31
2023-01-05T17:10:25.609Z,10.45
2023-01-05T17:15:22.248Z,10.44
2023-01-05T17:20:14.415Z,9.44
2023-01-05T17:25:09.904Z,10.39
2023-01-05T17:30:02.989Z,10.35
2023-01-05T17:34:54.541Z,10.01
2023-01-05T17:39:46.886Z,10.46
2023-01-05T17:44:38.433Z,10.48
2023-01-05T17:49:32.828Z,10.05
2023-01-05T17:54:24.424Z,9.91
2023-01-05T17:59:15.979Z,9.91
2023-01-05T18:04:07.568Z,9.46
2023-01-05T18:08:59.155Z,9.80
2023-01-05T18:13:50.827Z,10.21
2023-01-05T18:18:42.513Z,10.20
2023-01-05T18:23:34.383Z,9.81
2023-01-05T18:28:25.991Z,10.26
2023-01-05T18:33:17.628Z,10.26
2023-01-05T18:38:09.536Z,10.26
2023-01-05T18:43:01.104Z,10.19
2023-01-05T18:47:56.668Z,9.73
2023-01-05T18:52:48.624Z,10.22
2023-01-05T18:57:40.289Z,10.22
2023-01-05T19:02:32.120Z,10.28
2023-01-05T19:07:23.850Z,10.03
2023-01-05T19:12:15.497Z,9.63
2023-01-05T19:17:07.216Z,9.72
2023-01-05T19:21:58.862Z,10.14
2023-01-05T19:26:51.110Z,10.15
2023-01-05T19:31:43.860Z,10.18
2023-01-05T19:36:36.186Z,9.50
2023-01-05T19:41:28.626Z,10.26
2023-01-05T19:46:22.221Z,10.04
2023-01-05T19:51:16.552Z,10.25
2023-01-05T19:56:14.291Z,10.29
2023-01-05T20:01:14.511Z,10.31
2023-01-05T20:06:21.722Z,10.37
2023-01-05T20:11:13.954Z,10.20
2023-01-05T20:16:11.385Z,10.22
2023-01-05T20:21:05.116Z,10.28
2023-01-05T20:26:08.941Z,9.92
2023-01-05T20:31:00.600Z,9.91
2023-01-05T20:35:52.318Z,9.91
2023-01-05T20:40:43.951Z,10.31
2023-01-05T20:45:35.657Z,10.44
2023-01-05T20:50:27.524Z,9.97
2023-01-05T20:55:19.971Z,10.44
2023-01-05T21:00:14.269Z,10.15
2023-01-05T21:05:06.479Z,10.06
2023-01-05T21:09:58.933Z,10.25
2023-01-05T21:14:50.659Z,10.22
2023-01-05T21:19:42.248Z,10.28
2023-01-05T21:24:33.920Z,10.26
2023-01-05T21:29:26.345Z,10.29
2023-01-05T21:34:18.369Z,10.27
2023-01-05T21:39:17.310Z,10.44
2023-01-05T21:44:10.952Z,10.54
2023-01-05T21:49:03.162Z,10.16
2023-01-05T21:54:13.361Z,10.44
2023-01-05T21:59:08.779Z,10.32
2023-01-05T22:04:00.458Z,10.29
2023-01-05T22:08:52.370Z,10.33
2023-01-05T22:13:43.966Z,10.21
2023-01-05T22:18:35.656Z,10.61
2023-01-05T22:23:29.323Z,10.68
2023-01-05T22:28:21.044Z,10.33
2023-01-05T22:33:12.756Z,10.03
2023-01-05T22:38:04.357Z,10.69
2023-01-05T22:42:55.923Z,10.20
2023-01-05T22:47:47.586Z,10.80
2023-01-05T22:52:39.270Z,10.65
2023-01-05T22:57:30.898Z,10.81
2023-01-05T23:02:23.771Z,10.89
2023-01-05T23:07:17.341Z,10.84
2023-01-05T23:12:09.621Z,10.98
2023-01-05T23:17:02.249Z,11.18
2023-01-05T23:21:53.796Z,10.86
2023-01-05T23:26:45.367Z,11.08
2023-01-05T23:31:36.932Z,10.83
2023-01-05T23:36:28.558Z,10.69
2023-01-05T23:41:20.417Z,10.95
2023-01-05T23:46:19.962Z,10.79
2023-01-05T23:51:14.120Z,10.98
2023-01-05T23:56:12.661Z,10.88
